Time;durP1;ratioP1;P1;durP2;ratioP2;P2;SDS_P1;SDS_P2;PMS_P1;PMS_P2;Temp;Humidity;BMP_temperature;BMP_pressure;BME280_temperature;BME280_humidity;BME280_pressure;Samples;Min_cycle;Max_cycle;Signal;HPM_P1;HPM_P2
2022/09/22 00:01:36;;;;;;;5.82;1.10;;;6.40;99.90;;;;;;5053361;28;20048;-70
2022/09/22 00:04:06;;;;;;;2.30;1.30;;;6.40;99.90;;;;;;5055900;28;20087;-70
2022/09/22 00:06:37;;;;;;;3.40;1.90;;;6.30;99.90;;;;;;5052922;28;20121;-70
2022/09/22 00:09:06;;;;;;;3.00;1.77;;;6.20;99.90;;;;;;5054711;28;20056;-69
2022/09/22 00:11:37;;;;;;;3.05;2.00;;;6.20;99.90;;;;;;5053409;28;20036;-70
2022/09/22 00:14:11;;;;;;;5.00;2.40;;;6.10;99.90;;;;;;5048963;28;20053;-69
2022/09/22 00:16:43;;;;;;;3.03;2.00;;;6.10;99.90;;;;;;5057315;28;20423;-69
2022/09/22 00:19:18;;;;;;;3.40;1.90;;;6.20;99.90;;;;;;5055018;28;20029;-69
2022/09/22 00:21:43;;;;;;;2.65;2.00;;;6.10;99.90;;;;;;5054911;28;20037;-69
2022/09/22 00:24:10;;;;;;;4.32;2.00;;;6.20;99.90;;;;;;5050988;28;20040;-70
2022/09/22 00:26:37;;;;;;;3.70;2.00;;;6.30;99.90;;;;;;5059159;28;20040;-70
2022/09/22 00:29:03;;;;;;;4.50;1.60;;;6.20;99.90;;;;;;5048076;28;20048;-70
2022/09/22 00:31:29;;;;;;;3.88;1.90;;;6.20;99.90;;;;;;5058230;28;20176;-69
2022/09/22 00:33:55;;;;;;;3.13;2.00;;;6.20;99.90;;;;;;5046948;28;20036;-70
2022/09/22 00:36:26;;;;;;;3.30;2.00;;;6.20;99.90;;;;;;5064587;28;20064;-70
2022/09/22 00:38:53;;;;;;;1.48;1.00;;;6.20;99.90;;;;;;5048013;28;20037;-69
2022/09/22 00:41:31;;;;;;;2.60;1.40;;;6.00;99.90;;;;;;5054466;28;20112;-70
2022/09/22 00:44:33;;;;;;;4.38;2.13;;;6.10;99.90;;;;;;5059020;28;20127;-70
2022/09/22 00:47:10;;;;;;;1.35;1.15;;;5.90;99.90;;;;;;5054669;28;20084;-70
2022/09/22 00:50:01;;;;;;;2.97;1.20;;;5.90;99.90;;;;;;5061585;28;20045;-70
2022/09/22 00:52:47;;;;;;;1.60;1.00;;;5.90;99.90;;;;;;5056229;28;20052;-69
2022/09/22 00:55:29;;;;;;;1.10;0.88;;;5.70;99.90;;;;;;5074081;28;20041;-70
2022/09/22 00:57:58;;;;;;;4.30;1.10;;;5.70;99.90;;;;;;5052902;28;20072;-69
2022/09/22 01:00:23;;;;;;;3.00;1.00;;;5.50;99.90;;;;;;5048210;28;20040;-69
2022/09/22 01:02:53;;;;;;;2.30;1.00;;;5.50;99.90;;;;;;5058820;28;20056;-70
2022/09/22 01:05:19;;;;;;;3.15;1.70;;;5.60;99.90;;;;;;5058014;28;20082;-69
2022/09/22 01:07:46;;;;;;;2.75;1.70;;;5.50;99.90;;;;;;5048722;28;20087;-69
2022/09/22 01:10:12;;;;;;;6.88;2.50;;;5.50;99.90;;;;;;5056351;28;20095;-69
2022/09/22 01:12:45;;;;;;;4.05;2.40;;;5.70;99.90;;;;;;5049641;28;20045;-69
2022/09/22 01:15:26;;;;;;;1.63;0.98;;;5.70;99.90;;;;;;5050512;28;20044;-69
2022/09/22 01:18:01;;;;;;;1.13;0.60;;;5.70;99.90;;;;;;5043870;28;20449;-70
2022/09/22 01:20:53;;;;;;;2.97;0.77;;;5.70;99.90;;;;;;5049738;28;20662;-69
2022/09/22 01:24:04;;;;;;;2.77;1.07;;;5.70;99.90;;;;;;5050421;28;20075;-69
2022/09/22 01:26:58;;;;;;;1.33;0.70;;;5.70;99.90;;;;;;5048866;28;20053;-69
2022/09/22 01:29:45;;;;;;;0.95;0.88;;;5.70;99.90;;;;;;5064255;28;20036;-69
2022/09/22 01:32:28;;;;;;;1.13;0.90;;;5.80;99.90;;;;;;5046613;28;20046;-68
2022/09/22 01:34:57;;;;;;;1.55;0.90;;;5.80;99.90;;;;;;5065017;28;20029;-68
2022/09/22 01:37:35;;;;;;;1.40;1.02;;;5.80;99.90;;;;;;5051227;28;20037;-68
2022/09/22 01:40:11;;;;;;;3.70;1.10;;;5.80;99.90;;;;;;5046103;28;20472;-68
2022/09/22 01:42:44;;;;;;;2.72;1.40;;;5.80;99.90;;;;;;5045446;28;20053;-68
2022/09/22 01:45:12;;;;;;;;;;;5.80;99.90;;;;;;5047987;28;20045;-69
2022/09/22 01:47:40;;;;;;;5.15;2.30;;;5.80;99.90;;;;;;5047963;28;19917;-69
2022/09/22 01:50:22;;;;;;;3.90;2.22;;;5.80;99.90;;;;;;5041527;28;20479;-69
2022/09/22 01:52:51;;;;;;;6.30;2.20;;;5.80;99.90;;;;;;5069400;28;20094;-69
2022/09/22 01:55:31;;;;;;;6.25;2.88;;;5.80;99.90;;;;;;5064988;28;20092;-68
2022/09/22 01:58:04;;;;;;;4.10;2.00;;;5.80;99.90;;;;;;5062639;28;20379;-68
2022/09/22 02:00:31;;;;;;;5.10;1.95;;;5.80;99.90;;;;;;5039457;28;20037;-68
2022/09/22 02:03:03;;;;;;;6.22;2.50;;;5.90;99.90;;;;;;5046547;28;20048;-69
2022/09/22 02:06:00;;;;;;;8.90;2.40;;;5.80;99.90;;;;;;5045922;28;20059;-68
2022/09/22 02:08:46;;;;;;;3.80;2.25;;;5.80;99.90;;;;;;5048820;28;20048;-68
2022/09/22 02:11:17;;;;;;;3.70;2.10;;;5.80;99.90;;;;;;5045905;28;20049;-68
2022/09/22 02:13:43;;;;;;;1.95;1.60;;;5.80;99.90;;;;;;5052282;28;20048;-69
2022/09/22 02:16:11;;;;;;;1.08;0.80;;;5.70;99.90;;;;;;5047051;28;20044;-69
2022/09/22 02:18:50;;;;;;;10.25;0.90;;;5.70;99.90;;;;;;5048997;28;20051;-69
2022/09/22 02:21:17;;;;;;;1.20;0.80;;;5.50;99.90;;;;;;5062108;28;20033;-69
2022/09/22 02:23:45;;;;;;;1.95;0.80;;;5.40;99.90;;;;;;5052219;28;20054;-69
2022/09/22 02:26:16;;;;;;;1.10;1.00;;;5.10;99.90;;;;;;5065325;28;20095;-69
2022/09/22 02:28:43;;;;;;;0.90;0.80;;;5.10;99.90;;;;;;5049721;28;20076;-69
2022/09/22 02:31:11;;;;;;;1.83;1.00;;;5.00;99.90;;;;;;5033225;28;20499;-69
2022/09/22 02:33:39;;;;;;;3.50;1.20;;;4.90;99.90;;;;;;5050938;28;20231;-68
2022/09/22 02:36:40;;;;;;;2.92;1.73;;;5.00;99.90;;;;;;5041981;28;20040;-68
2022/09/22 02:39:39;;;;;;;4.22;2.63;;;5.00;99.90;;;;;;5061613;28;20384;-69
2022/09/22 02:42:33;;;;;;;4.47;2.60;;;5.20;99.90;;;;;;5062207;28;20037;-69
2022/09/22 02:45:12;;;;;;;4.30;2.70;;;5.20;99.90;;;;;;5044343;28;20087;-69
2022/09/22 02:47:59;;;;;;;6.32;3.42;;;5.20;99.90;;;;;;5056008;28;20132;-69
2022/09/22 02:50:27;;;;;;;6.55;3.60;;;5.30;99.90;;;;;;5048416;28;20491;-69
2022/09/22 02:53:00;;;;;;;6.03;3.47;;;5.30;99.90;;;;;;5046546;28;20041;-69
2022/09/22 02:55:26;;;;;;;7.47;3.97;;;5.30;99.90;;;;;;5040904;28;20404;-69
2022/09/22 02:57:51;;;;;;;10.98;4.38;;;5.30;99.90;;;;;;5048756;28;20033;-69
2022/09/22 03:00:17;;;;;;;6.20;3.30;;;5.40;99.90;;;;;;5053106;28;20033;-69
2022/09/22 03:02:43;;;;;;;3.45;2.00;;;5.30;99.90;;;;;;5050737;28;20120;-69
2022/09/22 03:05:08;;;;;;;2.75;1.63;;;5.40;99.90;;;;;;5045173;28;20449;-69
2022/09/22 03:07:34;;;;;;;2.83;1.80;;;5.20;99.90;;;;;;5046570;28;20033;-69
2022/09/22 03:09:59;;;;;;;5.63;2.25;;;5.20;99.90;;;;;;5039871;28;20581;-69
2022/09/22 03:12:25;;;;;;;3.35;2.45;;;5.20;99.90;;;;;;5044789;28;20036;-69
2022/09/22 03:14:50;;;;;;;3.97;2.10;;;5.20;99.90;;;;;;5051037;28;20043;-69
2022/09/22 03:17:16;;;;;;;5.85;2.60;;;5.20;99.90;;;;;;5041150;28;20491;-69
2022/09/22 03:19:42;;;;;;;7.07;3.17;;;5.10;99.90;;;;;;5049064;28;20063;-69
2022/09/22 03:22:08;;;;;;;11.43;4.20;;;5.10;99.90;;;;;;5061396;28;20029;-69
2022/09/22 03:24:33;;;;;;;5.15;2.58;;;5.10;99.90;;;;;;5068476;28;20075;-68
2022/09/22 03:26:59;;;;;;;5.53;1.85;;;5.10;99.90;;;;;;5052085;28;20036;-68
2022/09/22 03:29:24;;;;;;;4.65;2.25;;;5.20;99.90;;;;;;5055290;28;20115;-68
2022/09/22 03:31:50;;;;;;;7.80;2.15;;;5.00;99.90;;;;;;5042051;28;20568;-68
2022/09/22 03:34:15;;;;;;;3.67;2.05;;;5.00;99.90;;;;;;5044657;28;20037;-68
2022/09/22 03:36:41;;;;;;;16.33;1.70;;;4.90;99.90;;;;;;5049314;28;20032;-68
2022/09/22 03:39:07;;;;;;;3.70;1.60;;;4.80;99.90;;;;;;5052098;28;20041;-68
2022/09/22 03:41:32;;;;;;;1.77;1.42;;;4.70;99.90;;;;;;5049401;28;20531;-68
2022/09/22 03:43:58;;;;;;;3.30;1.85;;;4.60;99.90;;;;;;5055376;28;20045;-68
2022/09/22 03:46:24;;;;;;;3.65;2.17;;;4.50;99.90;;;;;;5050048;28;20136;-68
2022/09/22 03:48:49;;;;;;;3.20;1.90;;;4.40;99.90;;;;;;5055557;28;20047;-68
2022/09/22 03:51:15;;;;;;;5.20;2.65;;;4.60;99.90;;;;;;5044463;28;20041;-68
2022/09/22 03:53:41;;;;;;;6.35;3.00;;;4.60;99.90;;;;;;5049759;28;20040;-68
2022/09/22 03:56:12;;;;;;;10.82;5.47;;;4.60;99.90;;;;;;5047967;28;21369;-68
2022/09/22 03:58:38;;;;;;;5.53;2.58;;;4.70;99.90;;;;;;5051825;28;20115;-68
2022/09/22 04:01:05;;;;;;;4.07;2.45;;;4.80;99.90;;;;;;5043885;28;20497;-68
2022/09/22 04:03:31;;;;;;;8.10;3.42;;;4.70;99.90;;;;;;5060398;28;20171;-68
2022/09/22 04:05:57;;;;;;;40.10;3.10;;;4.80;99.90;;;;;;5054928;28;20049;-68
2022/09/22 04:08:22;;;;;;;2.83;2.00;;;4.70;99.90;;;;;;5037678;28;20048;-68
2022/09/22 04:10:48;;;;;;;3.13;2.05;;;4.70;99.90;;;;;;5042722;28;20094;-68
2022/09/22 04:13:14;;;;;;;3.35;2.65;;;4.70;99.90;;;;;;5052841;28;20032;-68
2022/09/22 04:15:41;;;;;;;6.50;2.80;;;4.60;99.90;;;;;;5048917;28;21444;-68
2022/09/22 04:18:07;;;;;;;4.18;3.17;;;4.70;99.90;;;;;;5049715;28;20048;-68
2022/09/22 04:20:33;;;;;;;3.58;2.60;;;4.70;99.90;;;;;;5061058;28;20048;-68
2022/09/22 04:22:58;;;;;;;6.68;2.75;;;4.70;99.90;;;;;;5053703;28;20395;-67
2022/09/22 04:25:24;;;;;;;8.73;4.05;;;4.70;99.90;;;;;;5059832;28;20040;-67
2022/09/22 04:27:49;;;;;;;7.85;4.43;;;4.70;99.90;;;;;;5050006;28;20083;-67
2022/09/22 04:30:15;;;;;;;10.13;5.30;;;4.70;99.90;;;;;;5050994;28;20037;-68
2022/09/22 04:32:41;;;;;;;8.95;3.90;;;4.70;99.90;;;;;;5065317;28;20052;-67
2022/09/22 04:35:07;;;;;;;6.90;3.95;;;4.70;99.90;;;;;;5056287;28;20040;-67
2022/09/22 04:37:33;;;;;;;3.45;2.50;;;4.80;99.90;;;;;;5063205;28;20028;-67
2022/09/22 04:39:59;;;;;;;13.25;2.25;;;4.80;99.90;;;;;;5050613;28;20118;-67
2022/09/22 04:42:25;;;;;;;3.72;1.90;;;4.70;99.90;;;;;;5046999;28;20127;-67
2022/09/22 04:44:50;;;;;;;11.00;3.50;;;4.50;99.90;;;;;;5056436;28;20036;-67
2022/09/22 04:47:16;;;;;;;6.45;2.28;;;4.50;99.90;;;;;;5048827;28;20032;-68
2022/09/22 04:49:41;;;;;;;2.58;1.50;;;4.60;99.90;;;;;;5035269;28;20086;-67
2022/09/22 04:52:08;;;;;;;3.80;1.67;;;4.50;99.90;;;;;;5047480;28;20041;-67
2022/09/22 04:54:34;;;;;;;3.58;1.63;;;4.40;99.90;;;;;;5049257;28;20122;-67
2022/09/22 04:56:59;;;;;;;2.25;1.60;;;4.40;99.90;;;;;;5048057;28;20248;-67
2022/09/22 04:59:25;;;;;;;4.95;1.98;;;4.20;99.90;;;;;;5059912;28;20065;-67
2022/09/22 05:01:50;;;;;;;2.97;2.30;;;4.30;99.90;;;;;;5037447;28;20048;-68
2022/09/22 05:04:17;;;;;;;2.25;2.00;;;4.20;99.90;;;;;;5054577;28;20040;-68
2022/09/22 05:06:42;;;;;;;4.40;1.85;;;4.20;99.90;;;;;;5048785;28;20033;-68
2022/09/22 05:09:08;;;;;;;2.72;1.80;;;4.10;99.90;;;;;;5051298;28;20434;-67
2022/09/22 05:11:33;;;;;;;10.43;1.83;;;4.10;99.90;;;;;;5061043;28;20040;-67
2022/09/22 05:13:59;;;;;;;2.67;2.00;;;4.00;99.90;;;;;;5058292;28;20085;-67
2022/09/22 05:16:25;;;;;;;2.47;1.80;;;4.00;99.90;;;;;;5055524;28;20551;-67
2022/09/22 05:18:50;;;;;;;3.58;2.40;;;4.10;99.90;;;;;;5047019;28;20438;-68
2022/09/22 05:21:17;;;;;;;2.88;2.50;;;3.90;99.90;;;;;;5046442;28;20052;-68
2022/09/22 05:23:44;;;;;;;4.60;3.33;;;4.00;99.90;;;;;;5057292;28;20502;-68
2022/09/22 05:26:10;;;;;;;5.75;3.40;;;4.00;99.90;;;;;;5060790;28;20060;-68
2022/09/22 05:28:35;;;;;;;8.30;4.15;;;4.10;99.90;;;;;;5063060;28;20076;-68
2022/09/22 05:31:01;;;;;;;10.50;5.40;;;4.00;99.90;;;;;;5044023;28;20106;-68
2022/09/22 05:33:27;;;;;;;10.75;5.97;;;4.20;99.90;;;;;;5042831;28;20484;-69
2022/09/22 05:35:52;;;;;;;10.00;6.30;;;4.20;99.90;;;;;;5057316;28;20369;-69
2022/09/22 05:38:18;;;;;;;7.85;5.28;;;4.30;99.90;;;;;;5054496;28;20032;-67
2022/09/22 05:40:46;;;;;;;7.68;2.88;;;4.30;99.90;;;;;;5055247;28;20406;-68
2022/09/22 05:43:12;;;;;;;4.43;2.35;;;4.40;99.90;;;;;;5039976;28;20036;-68
2022/09/22 05:45:38;;;;;;;82.22;4.93;;;4.30;99.90;;;;;;5055862;28;20091;-68
2022/09/22 05:48:03;;;;;;;52.75;4.18;;;4.30;99.90;;;;;;5047106;28;20071;-68
2022/09/22 05:50:29;;;;;;;6.15;2.35;;;4.30;99.90;;;;;;5044282;28;20068;-67
2022/09/22 05:53:06;;;;;;;6.40;3.10;;;4.30;99.90;;;;;;5038471;28;20041;-68
2022/09/22 05:55:32;;;;;;;5.72;3.90;;;4.30;99.90;;;;;;5042933;28;20820;-68
2022/09/22 05:57:59;;;;;;;4.38;3.10;;;4.20;99.90;;;;;;5050370;28;20087;-68
2022/09/22 06:00:26;;;;;;;5.25;3.20;;;4.30;99.90;;;;;;5049644;28;20040;-68
2022/09/22 06:02:51;;;;;;;5.32;3.38;;;4.40;99.90;;;;;;5040064;28;20045;-68
2022/09/22 06:05:17;;;;;;;4.60;3.60;;;4.50;99.90;;;;;;5042814;28;20506;-69
2022/09/22 06:07:43;;;;;;;4.28;3.58;;;4.50;99.90;;;;;;5042029;28;20077;-69
2022/09/22 06:10:10;;;;;;;4.57;3.00;;;4.50;99.90;;;;;;5029766;28;20044;-69
2022/09/22 06:12:36;;;;;;;4.70;2.95;;;4.60;99.90;;;;;;5068090;28;20095;-68
2022/09/22 06:15:03;;;;;;;6.15;3.80;;;4.50;99.90;;;;;;5050363;28;20036;-69
2022/09/22 06:17:28;;;;;;;4.05;3.40;;;4.60;99.90;;;;;;5048928;28;20127;-69
2022/09/22 06:19:54;;;;;;;5.13;3.42;;;4.60;99.90;;;;;;5049624;28;20128;-69
2022/09/22 06:22:20;;;;;;;4.22;3.50;;;4.50;99.90;;;;;;5047202;28;20410;-68
2022/09/22 06:24:47;;;;;;;4.95;3.67;;;4.60;99.90;;;;;;5041543;28;20087;-68
2022/09/22 06:27:12;;;;;;;7.05;4.70;;;4.70;99.90;;;;;;5043685;28;20044;-68
2022/09/22 06:29:40;;;;;;;7.53;4.88;;;4.80;99.90;;;;;;5049822;28;20499;-68
2022/09/22 06:32:07;;;;;;;8.73;5.25;;;4.70;99.90;;;;;;5049466;28;20052;-68
2022/09/22 06:34:34;;;;;;;8.48;4.65;;;4.80;99.90;;;;;;5049357;28;20417;-67
2022/09/22 06:36:59;;;;;;;9.63;5.55;;;5.00;99.90;;;;;;5047167;28;20045;-67
2022/09/22 06:39:25;;;;;;;16.38;8.55;;;5.00;99.90;;;;;;5051692;28;20390;-68
2022/09/22 06:41:50;;;;;;;22.10;12.70;;;5.10;99.90;;;;;;5042900;28;20448;-68
2022/09/22 06:44:16;;;;;;;19.17;10.70;;;5.20;99.90;;;;;;5060033;28;20040;-68
2022/09/22 06:46:42;;;;;;;30.70;15.77;;;5.50;99.90;;;;;;5052523;28;20098;-68
2022/09/22 06:49:07;;;;;;;38.55;22.50;;;5.40;99.90;;;;;;5061048;28;20068;-68
2022/09/22 06:51:34;;;;;;;46.78;25.08;;;5.60;99.90;;;;;;5059922;28;20079;-69
2022/09/22 06:54:04;;;;;;;45.88;26.10;;;5.80;99.90;;;;;;5056365;28;20094;-69
2022/09/22 06:56:41;;;;;;;53.03;28.50;;;5.90;99.90;;;;;;5052737;28;20111;-69
2022/09/22 06:59:13;;;;;;;63.33;30.25;;;6.10;99.90;;;;;;5045272;28;20033;-70
2022/09/22 07:01:40;;;;;;;52.63;28.08;;;6.20;99.90;;;;;;5052291;28;20111;-69
2022/09/22 07:04:06;;;;;;;53.42;29.00;;;6.40;99.90;;;;;;5059391;28;20033;-70
2022/09/22 07:06:32;;;;;;;60.90;30.58;;;6.50;99.90;;;;;;5038425;28;20046;-70
2022/09/22 07:08:58;;;;;;;59.42;31.02;;;6.60;99.90;;;;;;5046796;28;20067;-70
2022/09/22 07:11:24;;;;;;;64.57;33.08;;;6.80;99.90;;;;;;5047879;28;20705;-70
2022/09/22 07:13:53;;;;;;;62.17;32.70;;;6.90;99.90;;;;;;5061335;28;20479;-70
2022/09/22 07:16:21;;;;;;;65.32;32.10;;;7.00;99.90;;;;;;5052691;28;20133;-70
2022/09/22 07:18:49;;;;;;;54.95;30.98;;;7.20;99.90;;;;;;5035921;28;20487;-70
2022/09/22 07:21:21;;;;;;;62.28;32.55;;;7.30;99.90;;;;;;5044188;28;20072;-70
2022/09/22 07:23:48;;;;;;;61.53;32.43;;;7.40;99.90;;;;;;5048190;28;20128;-70
2022/09/22 07:26:18;;;;;;;72.15;37.83;;;7.70;99.90;;;;;;5045869;28;20349;-70
2022/09/22 07:28:44;;;;;;;77.70;38.88;;;7.80;99.90;;;;;;5030398;28;20159;-69
2022/09/22 07:31:12;;;;;;;77.57;41.28;;;8.00;99.90;;;;;;5062697;28;20047;-69
2022/09/22 07:33:40;;;;;;;80.85;43.15;;;8.20;99.90;;;;;;5066408;28;20106;-69
2022/09/22 07:36:18;;;;;;;70.63;40.30;;;8.20;99.90;;;;;;5050362;28;20037;-68
2022/09/22 07:38:50;;;;;;;77.95;39.38;;;8.50;99.90;;;;;;5048989;28;20033;-67
2022/09/22 07:41:21;;;;;;;68.47;38.33;;;8.50;99.90;;;;;;5047474;28;20044;-68
2022/09/22 07:43:52;;;;;;;68.68;39.65;;;8.70;99.90;;;;;;5065025;28;20380;-67
2022/09/22 07:46:18;;;;;;;66.43;37.83;;;8.80;99.90;;;;;;5050707;28;20044;-67
2022/09/22 07:48:45;;;;;;;63.53;35.55;;;9.10;99.90;;;;;;5059942;28;20123;-67
2022/09/22 07:51:23;;;;;;;59.10;35.10;;;9.30;99.90;;;;;;5054851;28;20041;-67
2022/09/22 07:54:08;;;;;;;61.33;34.10;;;9.40;99.90;;;;;;5053036;28;20040;-67
2022/09/22 07:56:35;;;;;;;55.20;32.00;;;9.40;99.90;;;;;;5063802;28;20036;-67
2022/09/22 07:59:06;;;;;;;48.90;29.17;;;9.60;99.90;;;;;;5055392;28;20084;-67
2022/09/22 08:01:33;;;;;;;49.17;28.88;;;9.70;99.90;;;;;;5050147;28;20068;-67
2022/09/22 08:03:59;;;;;;;49.05;28.00;;;9.90;99.90;;;;;;5060418;28;20036;-68
2022/09/22 08:06:26;;;;;;;43.03;28.77;;;9.90;99.90;;;;;;5058470;28;20123;-67
2022/09/22 08:08:55;;;;;;;40.15;25.38;;;10.00;99.90;;;;;;5062366;28;20028;-68
2022/09/22 08:11:26;;;;;;;38.92;25.52;;;10.30;99.90;;;;;;5066959;28;20040;-67
2022/09/22 08:13:59;;;;;;;40.55;25.42;;;10.30;99.90;;;;;;5056369;28;20442;-67
2022/09/22 08:16:27;;;;;;;37.05;23.88;;;10.50;99.90;;;;;;5057788;28;20066;-67
2022/09/22 08:18:54;;;;;;;30.92;22.63;;;10.60;99.90;;;;;;5060057;28;20063;-67
2022/09/22 08:21:29;;;;;;;36.38;22.83;;;10.70;99.90;;;;;;5054513;28;20058;-67
2022/09/22 08:23:55;;;;;;;32.35;20.33;;;10.80;99.90;;;;;;5060056;28;20057;-67
2022/09/22 08:26:21;;;;;;;29.52;20.33;;;10.90;99.90;;;;;;5073924;28;20040;-67
2022/09/22 08:28:54;;;;;;;25.98;18.50;;;11.00;99.90;;;;;;5061843;28;20546;-69
2022/09/22 08:31:22;;;;;;;27.48;18.27;;;11.20;99.90;;;;;;5053061;28;20998;-68
2022/09/22 08:33:49;;;;;;;24.67;17.02;;;11.30;99.90;;;;;;5055018;28;20047;-68
2022/09/22 08:36:15;;;;;;;33.92;18.45;;;11.50;99.90;;;;;;5047095;28;20041;-68
2022/09/22 08:38:42;;;;;;;24.75;18.10;;;11.60;99.90;;;;;;5053771;28;20398;-68
2022/09/22 08:41:26;;;;;;;23.52;16.05;;;11.70;99.90;;;;;;5056667;28;20123;-68
2022/09/22 08:44:12;;;;;;;22.77;15.60;;;11.80;99.90;;;;;;5051200;28;20041;-69
2022/09/22 08:46:42;;;;;;;23.15;15.55;;;11.90;99.90;;;;;;5049109;28;20053;-68
2022/09/22 08:52:37;;;;;;;18.50;13.63;;;12.20;99.90;;;;;;5054800;28;20055;-70
2022/09/22 08:55:05;;;;;;;19.70;14.02;;;12.30;99.90;;;;;;5058769;28;20043;-69
2022/09/22 08:58:07;;;;;;;18.92;13.27;;;12.50;99.90;;;;;;5058542;28;20086;-70
2022/09/22 09:00:41;;;;;;;21.87;13.33;;;12.60;99.90;;;;;;5052594;28;20048;-70
2022/09/22 09:03:36;;;;;;;21.38;12.43;;;12.70;99.90;;;;;;5053592;28;20360;-69
2022/09/22 09:06:08;;;;;;;19.98;12.63;;;12.80;99.90;;;;;;5041731;28;20048;-69
2022/09/22 09:09:00;;;;;;;18.93;13.17;;;12.90;99.90;;;;;;5050906;28;20495;-70
2022/09/22 09:11:37;;;;;;;17.48;12.88;;;13.10;99.90;;;;;;5049757;28;20302;-70
2022/09/22 09:14:15;;;;;;;18.30;10.85;;;13.10;99.90;;;;;;5072445;28;20499;-71
2022/09/22 09:16:44;;;;;;;20.80;12.40;;;13.30;99.90;;;;;;5053030;28;20041;-71
2022/09/22 09:19:18;;;;;;;16.80;11.93;;;13.30;99.90;;;;;;5054505;28;20051;-71
2022/09/22 09:21:53;;;;;;;16.17;11.30;;;13.40;99.90;;;;;;5061147;28;20091;-71
2022/09/22 09:24:33;;;;;;;15.65;10.35;;;13.50;99.90;;;;;;5058364;28;20032;-71
2022/09/22 09:27:08;;;;;;;11.50;9.80;;;13.60;99.90;;;;;;5055354;28;20407;-71
2022/09/22 09:30:02;;;;;;;14.68;9.82;;;13.70;99.90;;;;;;5059712;28;20395;-71
2022/09/22 09:32:48;;;;;;;16.13;9.02;;;13.70;99.90;;;;;;5052332;28;20044;-72
2022/09/22 09:35:52;;;;;;;13.52;8.77;;;13.80;99.90;;;;;;5062116;28;20037;-71
2022/09/22 09:38:34;;;;;;;11.50;9.13;;;13.90;99.90;;;;;;5068337;28;20051;-71
2022/09/22 09:41:11;;;;;;;14.20;8.80;;;14.10;99.90;;;;;;5046050;28;20075;-71
2022/09/22 09:43:41;;;;;;;12.20;8.82;;;14.10;99.90;;;;;;5055559;28;20099;-72
2022/09/22 09:46:13;;;;;;;14.15;9.25;;;14.20;99.90;;;;;;5055839;28;20036;-71
2022/09/22 09:49:01;;;;;;;10.95;7.97;;;14.30;99.90;;;;;;5066210;28;20128;-72
2022/09/22 09:51:28;;;;;;;10.88;8.07;;;14.40;99.90;;;;;;5040513;28;20056;-71
2022/09/22 09:53:55;;;;;;;11.20;7.40;;;14.50;99.90;;;;;;5046540;28;20063;-72
2022/09/22 09:56:29;;;;;;;14.13;7.32;;;14.50;99.90;;;;;;5048524;28;20483;-71
2022/09/22 10:01:50;;;;;;;11.82;8.25;;;14.80;99.90;;;;;;5049918;28;20079;-72
2022/09/22 10:04:37;;;;;;;11.32;7.95;;;14.90;99.90;;;;;;5050892;28;20140;-70
2022/09/22 10:07:22;;;;;;;10.57;7.43;;;14.90;99.90;;;;;;5065151;28;20119;-68
2022/09/22 10:09:49;;;;;;;10.48;6.82;;;15.10;99.90;;;;;;5031124;28;20431;-72
2022/09/22 10:12:27;;;;;;;11.02;6.28;;;15.20;99.90;;;;;;5031762;28;20129;-72
2022/09/22 10:14:58;;;;;;;13.15;7.20;;;15.30;99.90;;;;;;5047997;28;20075;-70
2022/09/22 10:17:38;;;;;;;9.85;7.18;;;15.40;99.90;;;;;;5046473;28;20079;-70
2022/09/22 10:20:16;;;;;;;13.95;6.90;;;15.40;99.90;;;;;;5046737;28;20033;-71
2022/09/22 10:22:42;;;;;;;11.02;7.55;;;15.50;99.90;;;;;;5045379;28;20037;-72
2022/09/22 10:25:26;;;;;;;12.85;6.82;;;15.60;99.90;;;;;;5051891;28;20403;-70
2022/09/22 10:28:19;;;;;;;11.90;6.72;;;15.70;99.90;;;;;;5040290;28;20451;-70
2022/09/22 10:30:59;;;;;;;9.23;6.68;;;15.70;99.90;;;;;;5041118;28;20061;-66
2022/09/22 10:33:25;;;;;;;11.43;6.22;;;15.80;99.90;;;;;;5050498;28;20479;-67
2022/09/22 10:36:10;;;;;;;11.02;6.63;;;15.90;99.90;;;;;;5045969;28;20068;-69
2022/09/22 10:38:41;;;;;;;11.90;6.50;;;15.90;99.90;;;;;;5047685;28;20075;-70
2022/09/22 10:41:13;;;;;;;11.23;6.63;;;16.00;99.90;;;;;;5054734;28;20526;-70
2022/09/22 10:43:42;;;;;;;10.55;6.30;;;16.10;99.90;;;;;;5048220;28;20049;-71
2022/09/22 10:46:35;;;;;;;10.52;6.10;;;16.10;99.90;;;;;;5056785;28;20076;-68
2022/09/22 10:49:20;;;;;;;10.43;6.07;;;16.20;99.90;;;;;;5049936;28;20566;-69
2022/09/22 10:52:24;;;;;;;12.65;5.78;;;16.20;99.90;;;;;;5060940;28;20414;-70
2022/09/22 10:55:09;;;;;;;9.40;5.60;;;16.30;99.90;;;;;;5046231;28;20049;-67
2022/09/22 10:58:02;;;;;;;14.75;6.78;;;16.40;99.90;;;;;;5059159;28;20151;-68
2022/09/22 11:00:38;;;;;;;12.35;7.18;;;16.40;99.90;;;;;;5043865;28;20029;-66
2022/09/22 11:03:25;;;;;;;11.98;8.00;;;16.50;99.90;;;;;;5050661;28;20048;-69
2022/09/22 11:12:38;;;;;;;12.25;8.00;;;16.60;99.90;;;;;;5012567;28;20132;-68
2022/09/22 11:15:15;;;;;;;12.68;8.27;;;16.70;99.90;;;;;;5043339;28;20045;-71
2022/09/22 11:17:59;;;;;;;13.02;8.52;;;16.70;99.90;;;;;;5061672;28;20120;-71
2022/09/22 11:20:43;;;;;;;13.98;7.80;;;16.80;99.90;;;;;;5043315;28;20036;-67
2022/09/22 11:23:20;;;;;;;14.65;7.13;;;16.90;99.90;;;;;;5042299;28;20044;-68
2022/09/22 11:25:45;;;;;;;16.02;6.53;;;16.90;99.90;;;;;;5050055;28;20040;-68
2022/09/22 11:28:35;;;;;;;12.88;6.80;;;16.80;99.90;;;;;;5048881;28;20041;-68
2022/09/22 11:31:01;;;;;;;16.10;6.40;;;16.70;99.90;;;;;;5063836;28;20045;-70
2022/09/22 11:33:57;;;;;;;10.07;5.93;;;16.60;99.90;;;;;;5044062;28;20115;-69
2022/09/22 11:36:39;;;;;;;12.20;6.68;;;16.40;99.90;;;;;;5050851;28;20053;-67
2022/09/22 11:39:17;;;;;;;16.30;7.15;;;16.30;99.90;;;;;;5061158;28;20372;-69
2022/09/22 11:42:12;;;;;;;10.75;6.80;;;16.40;99.90;;;;;;5039545;28;20033;-69
2022/09/22 11:44:52;;;;;;;12.82;6.22;;;16.50;99.90;;;;;;5048457;28;20094;-68
2022/09/22 11:47:29;;;;;;;9.15;6.10;;;16.60;99.90;;;;;;5041284;28;20045;-69
2022/09/22 11:50:04;;;;;;;12.02;5.97;;;16.80;99.90;;;;;;5049779;28;20087;-70
2022/09/22 11:53:04;;;;;;;9.32;5.57;;;16.70;99.90;;;;;;5047310;28;20116;-70
2022/09/22 11:55:41;;;;;;;10.38;5.63;;;16.70;99.90;;;;;;5044051;28;20118;-70
2022/09/22 11:58:18;;;;;;;11.52;4.80;;;16.60;99.90;;;;;;5045007;28;20357;-69
2022/09/22 12:00:50;;;;;;;11.10;5.47;;;16.60;99.90;;;;;;5054854;28;20061;-70
2022/09/22 12:03:23;;;;;;;13.75;6.28;;;16.70;99.90;;;;;;5043351;28;20038;-68
2022/09/22 12:06:01;;;;;;;10.13;6.20;;;16.80;99.90;;;;;;5042860;28;20136;-68
2022/09/22 12:08:42;;;;;;;9.77;5.80;;;16.70;99.90;;;;;;5066428;28;20041;-68
2022/09/22 12:11:13;;;;;;;10.85;5.75;;;16.60;99.90;;;;;;5066788;28;20048;-68
2022/09/22 12:13:43;;;;;;;11.27;5.00;;;16.70;99.90;;;;;;5049794;28;20450;-69
2022/09/22 12:16:08;;;;;;;12.57;5.53;;;16.80;99.90;;;;;;5052000;28;20036;-67
2022/09/22 12:19:08;;;;;;;11.77;6.82;;;16.90;99.90;;;;;;5049663;28;20402;-68
2022/09/22 12:21:40;;;;;;;11.90;6.20;;;16.80;99.90;;;;;;5061101;28;20131;-68
2022/09/22 12:24:09;;;;;;;11.10;5.43;;;16.70;99.90;;;;;;5056658;28;20041;-69
2022/09/22 12:26:41;;;;;;;8.75;5.40;;;16.60;99.90;;;;;;5056888;28;20051;-69
2022/09/22 12:29:29;;;;;;;12.10;5.38;;;16.50;99.90;;;;;;5068850;28;20119;-70
2022/09/22 12:31:57;;;;;;;10.32;6.10;;;16.50;99.90;;;;;;5073436;28;20234;-70
2022/09/22 12:34:55;;;;;;;16.92;6.07;;;16.60;99.90;;;;;;5058127;28;20123;-67
2022/09/22 12:37:32;;;;;;;10.40;6.13;;;16.70;99.90;;;;;;5044280;28;20055;-68
2022/09/22 12:40:12;;;;;;;11.75;5.90;;;16.90;99.90;;;;;;5054614;28;21457;-67
2022/09/22 12:42:39;;;;;;;8.32;4.75;;;17.00;99.90;;;;;;5053134;28;20041;-69
2022/09/22 12:45:33;;;;;;;14.68;5.10;;;17.00;99.90;;;;;;5053952;28;20140;-70
2022/09/22 12:48:02;;;;;;;9.55;5.30;;;17.10;99.90;;;;;;5070288;28;20033;-68
2022/09/22 12:50:38;;;;;;;11.95;5.35;;;17.10;99.90;;;;;;5054660;28;20036;-68
2022/09/22 12:53:22;;;;;;;10.77;5.13;;;17.20;99.90;;;;;;5050633;28;20041;-70
2022/09/22 12:55:48;;;;;;;8.85;4.80;;;17.10;99.90;;;;;;5068358;28;20049;-68
2022/09/22 12:58:17;;;;;;;11.40;4.25;;;17.20;99.90;;;;;;5052125;28;20467;-67
2022/09/22 13:00:43;;;;;;;10.88;4.80;;;17.30;99.90;;;;;;5068906;28;20518;-66
2022/09/22 13:03:24;;;;;;;9.48;4.30;;;17.30;99.90;;;;;;5052836;28;20044;-70
2022/09/22 13:05:57;;;;;;;11.75;4.50;;;17.30;99.90;;;;;;5055714;28;20506;-70
2022/09/22 13:08:31;;;;;;;11.10;4.70;;;17.40;99.90;;;;;;5046298;28;20116;-67
2022/09/22 13:11:01;;;;;;;14.98;4.70;;;17.30;99.90;;;;;;5047576;28;20045;-68
2022/09/22 13:13:30;;;;;;;16.80;4.70;;;17.40;99.90;;;;;;5056237;28;20140;-69
2022/09/22 13:15:59;;;;;;;9.95;4.30;;;17.50;99.90;;;;;;5050940;28;20060;-68
2022/09/22 13:18:34;;;;;;;12.75;4.85;;;17.60;99.90;;;;;;5032476;28;20446;-69
2022/09/22 13:21:20;;;;;;;8.07;4.65;;;17.60;99.90;;;;;;5053035;28;20032;-68
2022/09/22 13:23:53;;;;;;;11.80;4.95;;;17.50;99.90;;;;;;5050467;28;20072;-67
2022/09/22 13:26:37;;;;;;;9.85;4.60;;;17.60;99.90;;;;;;5051879;28;20103;-70